createdAt,value
2018-07-09T00:00:12.755Z,67.70
2018-07-09T00:02:41.451Z,68.00
2018-07-09T00:05:10.427Z,68.30
2018-07-09T00:07:39.115Z,68.50
2018-07-09T00:10:07.918Z,68.80
2018-07-09T00:12:36.610Z,69.00
2018-07-09T00:15:05.394Z,69.40
2018-07-09T00:17:34.186Z,70.50
2018-07-09T00:20:02.914Z,70.00
2018-07-09T00:22:31.607Z,70.00
2018-07-09T00:25:00.470Z,70.30
2018-07-09T00:27:29.136Z,70.60
2018-07-09T00:29:57.867Z,70.40
2018-07-09T00:32:26.586Z,70.90
2018-07-09T00:34:55.273Z,70.80
2018-07-09T00:37:24.083Z,71.00
2018-07-09T00:39:52.824Z,71.30
2018-07-09T00:42:21.721Z,71.20
2018-07-09T00:44:50.438Z,71.20
2018-07-09T00:47:19.250Z,71.50
2018-07-09T00:49:47.926Z,71.60
2018-07-09T00:52:16.674Z,72.00
2018-07-09T00:54:45.416Z,72.30
2018-07-09T00:57:14.116Z,72.30
2018-07-09T00:59:42.850Z,72.80
2018-07-09T01:02:11.588Z,72.70
2018-07-09T01:04:40.292Z,72.40
2018-07-09T01:07:09.104Z,72.80
2018-07-09T01:09:37.829Z,72.90
2018-07-09T01:19:35.046Z,72.60
2018-07-09T01:27:01.653Z,72.80
2018-07-09T01:29:30.300Z,73.20
2018-07-09T01:31:59.072Z,73.50
2018-07-09T01:34:27.792Z,74.10
2018-07-09T01:36:56.513Z,74.40
2018-07-09T01:39:25.248Z,74.60
2018-07-09T01:44:22.373Z,75.20
2018-07-09T01:49:19.466Z,75.90
2018-07-09T01:51:48.200Z,76.30
2018-07-09T01:54:16.932Z,76.40
2018-07-09T01:56:45.648Z,76.70
2018-07-09T02:01:43.011Z,77.00
2018-07-09T02:06:40.875Z,77.60
2018-07-09T02:09:09.763Z,77.80
2018-07-09T02:11:39.078Z,78.00
2018-07-09T02:16:36.541Z,78.00
2018-07-09T02:19:05.309Z,78.40
2018-07-09T02:21:34.041Z,78.40
2018-07-09T02:26:31.205Z,78.40
2018-07-09T02:28:59.915Z,78.40
2018-07-09T02:31:28.649Z,78.40
2018-07-09T02:33:57.388Z,78.30
2018-07-09T02:36:26.085Z,78.40
2018-07-09T02:38:54.802Z,78.50
2018-07-09T02:41:23.548Z,78.50
2018-07-09T02:43:52.705Z,78.80
2018-07-09T02:46:21.404Z,78.90
2018-07-09T02:51:18.493Z,79.20
2018-07-09T02:53:47.193Z,79.30
2018-07-09T02:56:15.962Z,79.10
2018-07-09T03:01:13.202Z,78.80
2018-07-09T03:03:41.801Z,78.90
2018-07-09T03:06:10.544Z,79.00
2018-07-09T03:08:39.230Z,79.10
2018-07-09T03:13:36.660Z,80.00
2018-07-09T03:16:05.354Z,80.40
2018-07-09T03:18:34.083Z,80.90
2018-07-09T03:21:02.823Z,80.80
2018-07-09T03:26:00.019Z,81.60
2018-07-09T03:28:28.761Z,81.80
2018-07-09T03:30:57.479Z,81.90
2018-07-09T03:33:26.838Z,82.00
2018-07-09T03:35:55.589Z,81.80
2018-07-09T03:38:24.319Z,81.50
2018-07-09T03:43:21.476Z,81.10
2018-07-09T03:45:50.214Z,81.10
2018-07-09T03:48:18.882Z,81.10
2018-07-09T03:50:47.637Z,81.20
2018-07-09T03:55:44.793Z,81.80
2018-07-09T03:58:13.532Z,82.40
2018-07-09T04:00:42.300Z,82.70
2018-07-09T04:03:10.994Z,82.60
2018-07-09T04:05:39.748Z,82.60
2018-07-09T04:10:36.851Z,82.30
2018-07-09T04:13:05.977Z,82.20
2018-07-09T04:15:34.752Z,82.00
2018-07-09T04:18:03.441Z,81.90
2018-07-09T04:20:32.097Z,81.90
2018-07-09T04:23:00.847Z,81.90
2018-07-09T04:25:35.991Z,81.90
2018-07-09T04:28:04.709Z,81.80
2018-07-09T04:30:33.468Z,81.70
2018-07-09T04:33:02.170Z,81.80
2018-07-09T04:35:30.887Z,81.80
2018-07-09T04:37:59.565Z,81.60
2018-07-09T04:47:53.521Z,80.40
2018-07-09T04:50:22.257Z,80.20
2018-07-09T04:57:48.192Z,80.60
2018-07-09T05:02:45.412Z,81.00
2018-07-09T05:05:14.153Z,81.50
2018-07-09T05:10:11.273Z,81.70
2018-07-09T05:12:39.991Z,81.40
2018-07-09T05:15:08.750Z,81.30
2018-07-09T05:17:37.449Z,80.90
2018-07-09T05:22:34.552Z,80.80
2018-07-09T05:27:31.627Z,80.60
2018-07-09T05:30:00.335Z,80.60
2018-07-09T05:32:29.032Z,80.80
2018-07-09T05:34:57.730Z,80.60
2018-07-09T05:37:26.470Z,77.30
2018-07-09T05:39:55.192Z,70.50
2018-07-09T05:44:52.333Z,61.90
2018-07-09T05:47:21.046Z,52.40
2018-07-09T05:49:50.932Z,47.20
2018-07-09T05:52:19.654Z,44.40
2018-07-09T05:54:48.362Z,43.00
2018-07-09T05:57:18.110Z,39.80
2018-07-09T06:02:15.970Z,36.70
2018-07-09T06:04:45.710Z,35.70
2018-07-09T06:09:42.791Z,33.80
2018-07-09T06:12:11.490Z,32.80
2018-07-09T06:14:43.927Z,32.10
2018-07-09T06:19:41.071Z,32.10
2018-07-09T06:22:09.754Z,30.10
2018-07-09T06:27:19.729Z,29.40
2018-07-09T06:29:48.437Z,29.10
2018-07-09T06:32:17.126Z,28.80
2018-07-09T06:37:14.518Z,28.90
2018-07-09T06:39:43.247Z,27.40
2018-07-09T06:42:12.055Z,27.40
2018-07-09T06:44:40.837Z,28.30
2018-07-09T06:47:10.981Z,28.40
2018-07-09T06:49:39.729Z,29.30
2018-07-09T06:52:10.447Z,30.40
2018-07-09T06:54:42.325Z,32.10
2018-07-09T06:57:11.018Z,32.00
2018-07-09T06:59:39.723Z,30.30
2018-07-09T07:02:08.483Z,30.00
2018-07-09T07:04:37.171Z,27.50
2018-07-09T07:07:05.857Z,25.50
2018-07-09T07:09:34.529Z,24.80
2018-07-09T07:12:04.402Z,25.80
2018-07-09T07:17:01.538Z,30.90
2018-07-09T07:19:30.341Z,31.90
2018-07-09T07:21:59.002Z,31.90
2018-07-09T07:24:27.666Z,34.30
2018-07-09T07:26:56.694Z,36.10
2018-07-09T07:29:25.373Z,34.20
2018-07-09T07:31:54.153Z,33.20
2018-07-09T07:34:22.849Z,31.00
2018-07-09T07:36:51.614Z,29.60
2018-07-09T07:39:20.340Z,31.30
2018-07-09T07:41:49.003Z,31.40
2018-07-09T07:44:17.799Z,29.20
2018-07-09T07:46:46.463Z,27.30
2018-07-09T07:49:15.170Z,27.10
2018-07-09T07:51:43.851Z,28.30
2018-07-09T07:54:12.732Z,29.70
2018-07-09T07:56:41.399Z,29.30
2018-07-09T07:59:10.164Z,29.20
2018-07-09T08:01:38.882Z,28.70
2018-07-09T08:04:07.594Z,28.50
2018-07-09T08:06:36.272Z,28.90
2018-07-09T08:09:05.572Z,28.60
2018-07-09T08:11:48.563Z,26.80
2018-07-09T08:14:04.205Z,26.50
2018-07-09T08:19:01.297Z,28.90
2018-07-09T08:21:29.981Z,29.70
2018-07-09T08:23:58.701Z,29.50
2018-07-09T08:26:27.381Z,29.90
2018-07-09T08:28:56.093Z,31.50
2018-07-09T08:31:25.467Z,33.70
2018-07-09T08:33:54.141Z,36.10
2018-07-09T08:36:22.880Z,37.90
2018-07-09T08:38:51.577Z,39.00
2018-07-09T08:43:48.800Z,41.30
2018-07-09T08:46:17.514Z,42.00
2018-07-09T08:48:46.845Z,40.90
2018-07-09T08:51:15.573Z,40.80
2018-07-09T08:53:44.342Z,41.20
2018-07-09T08:56:13.080Z,42.70
2018-07-09T08:58:41.855Z,44.20
2018-07-09T09:01:10.609Z,44.80
2018-07-09T09:03:39.301Z,46.70
2018-07-09T09:06:07.995Z,46.50
2018-07-09T09:08:36.785Z,46.90
2018-07-09T09:11:05.554Z,46.40
2018-07-09T09:13:34.253Z,45.90
2018-07-09T09:16:03.248Z,45.40
2018-07-09T09:18:31.941Z,45.50
2018-07-09T09:21:00.648Z,46.30
2018-07-09T09:23:29.368Z,46.50
2018-07-09T09:25:58.037Z,46.60
2018-07-09T09:28:26.768Z,46.60
2018-07-09T09:30:55.473Z,47.10
2018-07-09T09:33:24.396Z,47.50
2018-07-09T09:35:53.177Z,48.20
2018-07-09T09:38:21.895Z,48.20
2018-07-09T09:40:50.612Z,48.70
2018-07-09T09:43:19.352Z,49.10
2018-07-09T09:45:48.105Z,49.60
2018-07-09T09:48:16.830Z,50.40
2018-07-09T09:50:45.560Z,51.00
2018-07-09T09:53:14.317Z,52.30
2018-07-09T09:55:43.113Z,52.30
2018-07-09T09:58:11.760Z,49.70
2018-07-09T10:00:45.912Z,48.40
2018-07-09T10:03:14.675Z,45.70
2018-07-09T10:05:44.250Z,44.40
2018-07-09T10:08:12.975Z,44.30
2018-07-09T10:10:41.722Z,44.00
2018-07-09T10:13:10.433Z,44.50
2018-07-09T10:15:39.134Z,44.60
2018-07-09T10:20:36.277Z,48.80
2018-07-09T10:23:05.071Z,49.80
2018-07-09T10:25:33.709Z,50.10
2018-07-09T10:28:02.466Z,50.20
2018-07-09T10:30:31.232Z,49.30
2018-07-09T10:32:59.864Z,46.80
2018-07-09T10:35:28.581Z,46.50
2018-07-09T10:37:57.260Z,45.30
2018-07-09T10:40:25.986Z,44.50
2018-07-09T10:42:54.668Z,42.50
2018-07-09T10:45:23.346Z,42.80
2018-07-09T10:47:52.044Z,40.90
2018-07-09T10:50:20.849Z,41.30
2018-07-09T10:55:18.458Z,44.20
2018-07-09T10:57:47.228Z,46.00
2018-07-09T11:00:16.006Z,47.70
2018-07-09T11:02:44.693Z,47.00
2018-07-09T11:05:13.347Z,44.30
2018-07-09T11:07:42.085Z,41.70
2018-07-09T11:10:11.393Z,36.00
2018-07-09T11:12:40.941Z,36.10
2018-07-09T11:15:09.825Z,36.80
2018-07-09T11:17:39.321Z,38.90
2018-07-09T11:20:08.003Z,39.70
2018-07-09T11:22:36.853Z,41.40
2018-07-09T11:25:06.138Z,44.50
2018-07-09T11:30:03.244Z,47.70
2018-07-09T11:32:32.784Z,48.60
2018-07-09T11:35:01.509Z,49.10
2018-07-09T11:37:30.811Z,50.10
2018-07-09T11:39:59.643Z,49.40
2018-07-09T11:42:28.535Z,47.20
2018-07-09T11:44:57.243Z,46.90
2018-07-09T11:47:25.946Z,43.70
2018-07-09T11:49:54.673Z,43.10
2018-07-09T11:52:23.472Z,42.70
2018-07-09T11:54:52.229Z,42.50
2018-07-09T11:57:20.937Z,43.70
2018-07-09T11:59:49.669Z,44.20
2018-07-09T12:02:18.377Z,44.80
2018-07-09T12:04:47.140Z,45.00
2018-07-09T12:07:15.827Z,46.30
2018-07-09T12:09:44.545Z,47.50
2018-07-09T12:12:13.238Z,47.90
2018-07-09T12:17:10.371Z,49.80
2018-07-09T12:19:39.102Z,50.20
2018-07-09T12:22:07.832Z,48.90
2018-07-09T12:24:36.574Z,48.40
2018-07-09T12:27:05.547Z,48.40
2018-07-09T12:29:34.218Z,48.90
2018-07-09T12:32:02.938Z,48.40
2018-07-09T12:39:28.433Z,48.00
2018-07-09T12:41:57.797Z,48.30
2018-07-09T12:46:54.960Z,48.90
2018-07-09T12:49:23.666Z,48.60
2018-07-09T12:51:52.382Z,48.40
2018-07-09T12:54:21.096Z,47.90
2018-07-09T12:56:49.817Z,46.90
2018-07-09T12:59:18.559Z,46.10
2018-07-09T13:04:15.659Z,45.80
2018-07-09T13:06:44.799Z,45.80
2018-07-09T13:09:13.702Z,45.30
2018-07-09T13:11:42.441Z,45.40
2018-07-09T13:14:11.377Z,45.30
2018-07-09T13:16:40.283Z,45.60
2018-07-09T13:19:09.018Z,46.10
2018-07-09T13:21:37.746Z,46.40
2018-07-09T13:24:07.073Z,46.50
2018-07-09T13:26:35.787Z,47.00
2018-07-09T13:29:04.500Z,46.50
2018-07-09T13:31:33.223Z,45.60
2018-07-09T13:34:01.921Z,45.40
2018-07-09T13:36:30.763Z,45.80
2018-07-09T13:38:59.450Z,45.70
2018-07-09T13:41:28.258Z,46.20
2018-07-09T13:43:57.157Z,46.90
2018-07-09T13:46:26.098Z,47.40
2018-07-09T13:48:55.439Z,47.30
2018-07-09T13:56:22.520Z,47.30
2018-07-09T13:58:52.185Z,47.30
2018-07-09T14:01:21.407Z,46.30
2018-07-09T14:03:51.047Z,46.40
2018-07-09T14:08:49.826Z,45.20
2018-07-09T14:11:19.051Z,44.50
2018-07-09T14:13:48.266Z,44.40
2018-07-09T14:16:16.960Z,44.40
2018-07-09T14:18:45.683Z,44.60
2018-07-09T14:21:14.345Z,44.70
2018-07-09T14:23:43.054Z,44.80
2018-07-09T14:26:11.768Z,44.80
2018-07-09T14:28:40.494Z,44.80
2018-07-09T14:31:09.176Z,43.90
2018-07-09T14:41:03.048Z,43.70
2018-07-09T14:43:31.726Z,43.80
2018-07-09T14:46:00.422Z,43.70
2018-07-09T14:50:57.517Z,43.10
2018-07-09T14:55:54.560Z,43.30
2018-07-09T14:58:23.246Z,43.30
2018-07-09T15:00:51.993Z,43.40
2018-07-09T15:03:20.710Z,43.30
2018-07-09T15:05:49.381Z,43.50
2018-07-09T15:08:18.863Z,43.80
2018-07-09T15:10:47.537Z,43.70
2018-07-09T15:13:16.235Z,44.40
2018-07-09T15:15:44.948Z,45.30
2018-07-09T15:18:14.585Z,46.20
2018-07-09T15:23:12.262Z,47.60
2018-07-09T15:25:41.509Z,47.90
2018-07-09T15:28:10.225Z,48.20
2018-07-09T15:30:38.929Z,48.30
2018-07-09T15:33:07.674Z,48.40
2018-07-09T15:35:36.369Z,48.60
2018-07-09T15:38:05.164Z,49.00
2018-07-09T15:40:33.841Z,49.00
2018-07-09T15:43:02.660Z,49.10
2018-07-09T15:45:31.317Z,49.50
2018-07-09T15:48:00.026Z,49.60
2018-07-09T15:50:28.764Z,50.10
2018-07-09T15:52:57.477Z,50.00
2018-07-09T15:55:26.185Z,50.10
2018-07-09T15:57:54.875Z,50.80
2018-07-09T16:00:23.617Z,49.90
2018-07-09T16:02:52.361Z,50.00
2018-07-09T16:05:21.092Z,50.00
2018-07-09T16:07:49.818Z,49.80
2018-07-09T16:10:18.681Z,49.50
2018-07-09T16:12:47.429Z,49.60
2018-07-09T16:15:16.089Z,49.10
2018-07-09T16:17:44.850Z,49.10
2018-07-09T16:20:13.537Z,49.70
2018-07-09T16:22:42.221Z,49.30
2018-07-09T16:25:10.935Z,49.20
2018-07-09T16:27:39.627Z,49.00
2018-07-09T16:30:08.401Z,49.10
2018-07-09T16:32:37.195Z,49.00
2018-07-09T16:35:05.844Z,49.40
2018-07-09T16:37:34.546Z,49.90
2018-07-09T16:40:03.324Z,50.10
2018-07-09T16:42:32.038Z,50.10
2018-07-09T16:45:00.693Z,50.40
2018-07-09T16:47:29.368Z,50.80
2018-07-09T16:49:58.073Z,50.20
2018-07-09T16:52:26.781Z,50.60
2018-07-09T16:54:55.550Z,50.50
2018-07-09T16:57:24.169Z,50.60
2018-07-09T16:59:52.812Z,50.70
2018-07-09T17:02:21.549Z,50.80
2018-07-09T17:09:47.001Z,51.30
2018-07-09T17:12:15.721Z,51.70
2018-07-09T17:14:44.461Z,51.80
2018-07-09T17:17:13.114Z,52.20
2018-07-09T17:22:10.828Z,52.60
2018-07-09T17:24:39.497Z,52.80
2018-07-09T17:27:08.337Z,52.50
2018-07-09T17:29:36.990Z,52.70
2018-07-09T17:32:06.332Z,51.80
2018-07-09T17:34:35.028Z,51.70
2018-07-09T17:37:03.738Z,51.70
2018-07-09T17:39:32.418Z,51.90
2018-07-09T17:42:01.121Z,52.30
2018-07-09T17:44:29.805Z,52.00
2018-07-09T17:46:58.494Z,52.10
2018-07-09T17:51:55.661Z,52.20
2018-07-09T17:54:24.346Z,52.30
2018-07-09T17:56:53.046Z,52.70
2018-07-09T17:59:21.769Z,52.60
2018-07-09T18:01:50.560Z,53.10
2018-07-09T18:04:19.205Z,53.20
2018-07-09T18:06:49.113Z,53.20
2018-07-09T18:09:17.774Z,53.20
2018-07-09T18:11:46.450Z,53.30
2018-07-09T18:14:15.203Z,53.20
2018-07-09T18:16:43.862Z,53.40
2018-07-09T18:19:12.803Z,53.40
2018-07-09T18:24:09.889Z,54.30
2018-07-09T18:26:38.596Z,54.00
2018-07-09T18:29:07.398Z,54.00
2018-07-09T18:31:36.621Z,54.60
2018-07-09T18:34:05.502Z,54.80
2018-07-09T18:36:34.207Z,55.10
2018-07-09T18:39:02.885Z,55.40
2018-07-09T18:41:31.557Z,55.60
2018-07-09T18:46:28.694Z,56.10
2018-07-09T18:48:57.389Z,56.20
2018-07-09T18:51:26.103Z,56.40
2018-07-09T18:53:54.790Z,56.70
2018-07-09T18:56:23.478Z,57.00
2018-07-09T18:58:52.162Z,57.00
2018-07-09T19:03:49.330Z,57.10
2018-07-09T19:07:23.128Z,57.00
2018-07-09T19:09:52.077Z,56.80
2018-07-09T19:12:20.768Z,56.50
2018-07-09T19:14:49.993Z,56.60
2018-07-09T19:18:03.417Z,56.50
2018-07-09T19:20:43.809Z,57.10
2018-07-09T19:23:11.957Z,57.10
2018-07-09T19:25:43.098Z,57.20
2018-07-09T19:28:10.876Z,57.50
2018-07-09T19:30:38.762Z,57.40
2018-07-09T19:33:06.839Z,56.50
2018-07-09T19:35:34.625Z,55.60
2018-07-09T19:38:02.589Z,55.60
2018-07-09T19:40:30.169Z,55.40
2018-07-09T19:42:57.981Z,55.40
2018-07-09T19:47:54.243Z,55.60
2018-07-09T19:50:21.875Z,56.00
2018-07-09T19:52:49.687Z,56.20
2018-07-09T19:55:17.441Z,56.10
2018-07-09T19:57:45.217Z,56.40
2018-07-09T20:00:12.977Z,56.40
2018-07-09T20:02:40.748Z,56.30
2018-07-09T20:05:08.616Z,56.20
2018-07-09T20:10:09.739Z,56.60
2018-07-09T20:12:43.019Z,56.70
2018-07-09T20:15:16.229Z,57.00
2018-07-09T20:17:44.012Z,56.80
2018-07-09T20:22:39.714Z,56.50
2018-07-09T20:25:07.476Z,56.30
2018-07-09T20:27:35.298Z,56.60
2018-07-09T20:30:04.012Z,56.60
2018-07-09T20:32:31.827Z,56.10
2018-07-09T20:34:59.588Z,56.40
2018-07-09T20:37:27.345Z,56.70
2018-07-09T20:39:55.141Z,56.60
2018-07-09T20:42:22.893Z,56.10
2018-07-09T20:44:50.674Z,55.40
2018-07-09T20:47:18.538Z,55.20
2018-07-09T20:49:46.308Z,55.70
2018-07-09T20:52:14.122Z,54.90
2018-07-09T20:57:09.843Z,54.80
2018-07-09T21:04:33.760Z,54.70
2018-07-09T21:07:02.474Z,54.60
2018-07-09T21:09:31.223Z,55.00
2018-07-09T21:12:03.599Z,54.70
2018-07-09T21:14:31.405Z,54.80
2018-07-09T21:17:00.032Z,54.90
2018-07-09T21:21:55.692Z,55.00
2018-07-09T21:24:23.456Z,55.20
2018-07-09T21:29:19.781Z,55.50
2018-07-09T21:31:47.547Z,55.40
2018-07-09T21:34:15.340Z,55.70
2018-07-09T21:39:11.066Z,55.90
2018-07-09T21:41:38.862Z,56.10
2018-07-09T21:44:06.646Z,56.00
2018-07-09T21:46:34.408Z,56.30
2018-07-09T21:49:02.181Z,56.30
2018-07-09T21:51:29.958Z,56.40
2018-07-09T21:53:59.250Z,56.90
2018-07-09T21:56:27.130Z,56.70
2018-07-09T21:58:54.834Z,57.30
2018-07-09T22:03:51.204Z,59.10
2018-07-09T22:06:18.967Z,58.90
2018-07-09T22:11:15.217Z,59.60
2018-07-09T22:16:10.903Z,59.50
2018-07-09T22:18:38.713Z,59.50
2018-07-09T22:21:06.510Z,59.90
2018-07-09T22:23:34.306Z,59.80
2018-07-09T22:26:02.112Z,60.00
2018-07-09T22:28:29.900Z,60.10
2018-07-09T22:30:58.608Z,60.60
2018-07-09T22:33:27.357Z,60.70
2018-07-09T22:35:56.125Z,61.20
2018-07-09T22:38:24.834Z,60.60
2018-07-09T22:40:53.537Z,60.40
2018-07-09T22:43:33.646Z,60.80
2018-07-09T22:46:02.354Z,59.50
2018-07-09T22:51:00.590Z,63.40
2018-07-09T22:53:29.258Z,64.30
2018-07-09T22:56:07.651Z,64.40
2018-07-09T22:58:37.026Z,63.90
2018-07-09T23:08:31.589Z,63.50
2018-07-09T23:12:16.105Z,63.50
2018-07-09T23:17:33.411Z,62.50
2018-07-09T23:24:45.608Z,62.50
2018-07-09T23:27:13.428Z,63.00
2018-07-09T23:29:41.198Z,62.40
2018-07-09T23:34:43.061Z,62.10
2018-07-09T23:37:10.833Z,62.20
2018-07-09T23:42:06.665Z,61.70
2018-07-09T23:44:34.415Z,61.30
2018-07-09T23:49:30.175Z,61.10
2018-07-09T23:51:57.929Z,61.00
2018-07-09T23:54:25.705Z,61.20
2018-07-09T23:59:26.082Z,61.10
